createdAt,value
2019-03-05T00:00:12.709Z,19.03
2019-03-05T00:01:12.632Z,19.03
2019-03-05T00:02:12.813Z,19.02
2019-03-05T00:03:12.922Z,19.02
2019-03-05T00:04:12.746Z,19.01
2019-03-05T00:05:12.689Z,19.01
2019-03-05T00:06:12.762Z,18.99
2019-03-05T00:07:12.858Z,18.99
2019-03-05T00:08:12.746Z,18.99
2019-03-05T00:09:12.538Z,18.99
2019-03-05T00:10:12.731Z,18.98
2019-03-05T00:11:12.717Z,18.98
2019-03-05T00:12:12.573Z,18.98
2019-03-05T00:13:12.686Z,18.97
2019-03-05T00:14:12.761Z,18.97
2019-03-05T00:15:12.499Z,18.97
2019-03-05T00:16:12.677Z,18.96
2019-03-05T00:17:12.695Z,18.97
2019-03-05T00:18:12.665Z,18.96
2019-03-05T00:19:12.707Z,18.96
2019-03-05T00:20:12.862Z,18.96
2019-03-05T00:21:13.045Z,18.96
2019-03-05T00:22:13.148Z,18.96
2019-03-05T00:23:12.846Z,18.95
2019-03-05T00:24:12.680Z,18.94
2019-03-05T00:25:12.737Z,18.94
2019-03-05T00:26:12.717Z,18.94
2019-03-05T00:27:12.569Z,18.94
2019-03-05T00:28:12.694Z,18.93
2019-03-05T00:29:12.726Z,18.93
2019-03-05T00:30:12.583Z,18.92
2019-03-05T00:31:12.699Z,18.92
2019-03-05T00:32:12.865Z,18.92
2019-03-05T00:33:12.602Z,18.91
2019-03-05T00:34:12.676Z,18.91
2019-03-05T00:35:12.734Z,18.91
2019-03-05T00:36:12.652Z,18.9
2019-03-05T00:37:12.797Z,18.9
2019-03-05T00:38:12.836Z,18.9
2019-03-05T00:39:12.632Z,18.89
2019-03-05T00:40:12.776Z,18.89
2019-03-05T00:41:12.915Z,18.89
2019-03-05T00:42:12.676Z,18.88
2019-03-05T00:43:12.971Z,18.87
2019-03-05T00:44:12.574Z,18.87
2019-03-05T00:45:12.665Z,18.87
2019-03-05T00:46:12.849Z,18.86
2019-03-05T00:47:12.587Z,18.86
2019-03-05T00:48:12.665Z,18.86
2019-03-05T00:49:12.727Z,18.85
2019-03-05T00:50:12.632Z,18.85
2019-03-05T00:51:25.489Z,18.84
2019-03-05T00:52:12.792Z,18.84
2019-03-05T00:53:12.600Z,18.84
2019-03-05T00:54:12.642Z,18.84
2019-03-05T00:55:12.709Z,18.84
2019-03-05T00:56:12.595Z,18.83
2019-03-05T00:57:12.677Z,18.82
2019-03-05T00:58:12.803Z,18.81
2019-03-05T00:59:12.598Z,18.82
2019-03-05T01:00:12.637Z,18.81
2019-03-05T01:01:12.793Z,18.81
2019-03-05T01:02:12.594Z,18.8
2019-03-05T01:03:12.753Z,18.8
2019-03-05T01:04:13.190Z,18.79
2019-03-05T01:05:12.673Z,18.79
2019-03-05T01:06:12.628Z,18.78
2019-03-05T01:07:12.826Z,18.78
2019-03-05T01:08:12.646Z,18.78
2019-03-05T01:09:12.682Z,18.78
2019-03-05T01:10:12.822Z,18.77
2019-03-05T01:11:12.896Z,18.77
2019-03-05T01:12:12.644Z,18.77
2019-03-05T01:13:12.843Z,18.77
2019-03-05T01:14:12.628Z,18.76
2019-03-05T01:15:12.689Z,18.76
2019-03-05T01:16:12.854Z,18.76
2019-03-05T01:17:12.595Z,18.76
2019-03-05T01:18:12.687Z,18.75
2019-03-05T01:19:12.819Z,18.75
2019-03-05T01:20:12.642Z,18.75
2019-03-05T01:21:12.702Z,18.74
2019-03-05T01:22:12.559Z,18.74
2019-03-05T01:23:12.697Z,18.73
2019-03-05T01:24:13.080Z,18.73
2019-03-05T01:25:12.551Z,18.73
2019-03-05T01:26:12.992Z,18.72
2019-03-05T01:27:12.835Z,18.72
2019-03-05T01:28:12.608Z,18.72
2019-03-05T01:29:12.740Z,18.72
2019-03-05T01:30:12.831Z,18.72
2019-03-05T01:31:12.664Z,18.71
2019-03-05T01:32:12.760Z,18.71
2019-03-05T01:33:12.715Z,18.71
2019-03-05T01:34:12.577Z,18.7
2019-03-05T01:35:12.745Z,18.71
2019-03-05T01:36:12.736Z,18.7
2019-03-05T01:37:12.593Z,18.7
2019-03-05T01:38:12.697Z,18.69
2019-03-05T01:39:12.739Z,18.69
2019-03-05T01:40:12.711Z,18.68
2019-03-05T01:41:12.654Z,18.69
2019-03-05T01:42:12.827Z,18.69
2019-03-05T01:43:12.548Z,18.68
2019-03-05T01:44:12.702Z,18.68
2019-03-05T01:45:12.904Z,18.67
2019-03-05T01:46:12.596Z,18.68
2019-03-05T01:47:12.868Z,18.68
2019-03-05T01:48:12.590Z,18.67
2019-03-05T01:49:12.621Z,18.67
2019-03-05T01:50:12.772Z,18.66
2019-03-05T01:51:12.634Z,18.66
2019-03-05T01:52:12.612Z,18.66
2019-03-05T01:53:12.768Z,18.66
2019-03-05T01:54:12.657Z,18.66
2019-03-05T01:55:12.704Z,18.65
2019-03-05T01:56:12.809Z,18.65
2019-03-05T01:57:12.614Z,18.64
2019-03-05T01:58:12.614Z,18.65
2019-03-05T01:59:12.654Z,18.65
2019-03-05T02:00:12.681Z,18.64
2019-03-05T02:01:12.596Z,18.63
2019-03-05T02:02:12.794Z,18.63
2019-03-05T02:03:12.607Z,18.63
2019-03-05T02:04:12.613Z,18.62
2019-03-05T02:05:12.722Z,18.62
2019-03-05T02:06:12.624Z,18.61
2019-03-05T02:07:12.603Z,18.62
2019-03-05T02:08:12.768Z,18.61
2019-03-05T02:09:12.997Z,18.6
2019-03-05T02:10:12.706Z,18.6
2019-03-05T02:11:12.775Z,18.6
2019-03-05T02:12:12.574Z,18.6
2019-03-05T02:13:12.616Z,18.6
2019-03-05T02:14:12.851Z,18.59
2019-03-05T02:15:12.664Z,18.59
2019-03-05T02:16:12.710Z,18.59
2019-03-05T02:17:12.717Z,18.59
2019-03-05T02:18:12.678Z,18.59
2019-03-05T02:19:12.712Z,18.59
2019-03-05T02:20:12.558Z,18.58
2019-03-05T02:21:12.599Z,18.58
2019-03-05T02:22:12.674Z,18.58
2019-03-05T02:23:12.510Z,18.58
2019-03-05T02:24:12.675Z,18.58
2019-03-05T02:25:12.695Z,18.57
2019-03-05T02:26:12.523Z,18.56
2019-03-05T02:27:12.728Z,18.57
2019-03-05T02:28:12.708Z,18.56
2019-03-05T02:29:12.485Z,18.56
2019-03-05T02:30:12.608Z,18.55
2019-03-05T02:31:12.677Z,18.56
2019-03-05T02:32:12.564Z,18.55
2019-03-05T02:33:12.991Z,18.55
2019-03-05T02:34:12.780Z,18.56
2019-03-05T02:35:12.698Z,18.56
2019-03-05T02:36:12.661Z,18.55
2019-03-05T02:37:12.719Z,18.54
2019-03-05T02:38:12.661Z,18.54
2019-03-05T02:39:12.697Z,18.54
2019-03-05T02:40:12.710Z,18.54
2019-03-05T02:41:12.550Z,18.54
2019-03-05T02:42:12.720Z,18.54
2019-03-05T02:43:12.687Z,18.52
2019-03-05T02:44:12.598Z,18.53
2019-03-05T02:45:12.746Z,18.52
2019-03-05T02:46:12.776Z,18.52
2019-03-05T02:47:12.842Z,18.52
2019-03-05T02:48:12.706Z,18.52
2019-03-05T02:49:12.798Z,18.51
2019-03-05T02:50:12.609Z,18.51
2019-03-05T02:51:12.750Z,18.51
2019-03-05T02:52:12.716Z,18.51
2019-03-05T02:53:12.622Z,18.51
2019-03-05T02:54:12.715Z,18.5
2019-03-05T02:55:12.515Z,18.5
2019-03-05T02:56:12.656Z,18.5
2019-03-05T02:57:12.791Z,18.5
2019-03-05T02:58:12.528Z,18.49
2019-03-05T02:59:12.707Z,18.5
2019-03-05T03:00:12.772Z,18.49
2019-03-05T03:01:12.614Z,18.49
2019-03-05T03:02:12.639Z,18.48
2019-03-05T03:03:12.708Z,18.48
2019-03-05T03:04:12.568Z,18.48
2019-03-05T03:05:12.572Z,18.48
2019-03-05T03:06:12.764Z,18.48
2019-03-05T03:07:12.682Z,18.48
2019-03-05T03:08:12.628Z,18.48
2019-03-05T03:09:12.739Z,18.48
2019-03-05T03:10:12.611Z,18.48
2019-03-05T03:11:12.705Z,18.47
2019-03-05T03:12:13.011Z,18.47
2019-03-05T03:13:12.631Z,18.47
2019-03-05T03:14:12.639Z,18.47
2019-03-05T03:15:12.983Z,18.46
2019-03-05T03:16:12.616Z,18.45
2019-03-05T03:17:12.764Z,18.45
2019-03-05T03:18:12.858Z,18.45
2019-03-05T03:19:12.669Z,18.44
2019-03-05T03:20:12.724Z,18.45
2019-03-05T03:21:12.617Z,18.45
2019-03-05T03:22:12.722Z,18.44
2019-03-05T03:23:12.783Z,18.44
2019-03-05T03:24:12.560Z,18.44
2019-03-05T03:25:12.778Z,18.44
2019-03-05T03:26:12.724Z,18.43
2019-03-05T03:27:12.494Z,18.43
2019-03-05T03:28:12.695Z,18.44
2019-03-05T03:29:12.644Z,18.42
2019-03-05T03:30:12.634Z,18.41
2019-03-05T03:31:12.743Z,18.41
2019-03-05T03:32:12.906Z,18.41
2019-03-05T03:33:12.789Z,18.41
2019-03-05T03:34:12.759Z,18.4
2019-03-05T03:35:12.947Z,18.41
2019-03-05T03:36:12.538Z,18.41
2019-03-05T03:37:12.734Z,18.4
2019-03-05T03:38:12.558Z,18.4
2019-03-05T03:39:12.598Z,18.39
2019-03-05T03:40:12.798Z,18.39
2019-03-05T03:41:12.587Z,18.39
2019-03-05T03:42:12.738Z,18.39
2019-03-05T03:43:12.780Z,18.39
2019-03-05T03:44:12.549Z,18.38
2019-03-05T03:45:12.765Z,18.38
2019-03-05T03:46:12.754Z,18.37
2019-03-05T03:47:12.696Z,18.38
2019-03-05T03:48:12.634Z,18.37
2019-03-05T03:49:12.679Z,18.37
2019-03-05T03:50:12.588Z,18.37
2019-03-05T03:51:12.846Z,18.36
2019-03-05T03:52:12.435Z,18.36
2019-03-05T03:53:12.665Z,18.36
2019-03-05T03:54:12.993Z,18.36
2019-03-05T03:55:12.848Z,18.35
2019-03-05T03:56:12.598Z,18.35
2019-03-05T03:57:12.637Z,18.36
2019-03-05T03:58:12.763Z,18.36
2019-03-05T03:59:12.790Z,18.35
2019-03-05T04:00:12.690Z,18.35
2019-03-05T04:01:12.531Z,18.35
2019-03-05T04:02:12.652Z,18.35
2019-03-05T04:03:12.674Z,18.35
2019-03-05T04:04:12.539Z,18.34
2019-03-05T04:05:12.679Z,18.35
2019-03-05T04:06:12.721Z,18.35
2019-03-05T04:07:12.554Z,18.34
2019-03-05T04:08:12.796Z,18.34
2019-03-05T04:09:12.754Z,18.33
2019-03-05T04:10:12.654Z,18.33
2019-03-05T04:11:12.687Z,18.33
2019-03-05T04:12:12.528Z,18.33
2019-03-05T04:13:12.607Z,18.32
2019-03-05T04:14:12.712Z,18.33
2019-03-05T04:15:12.901Z,18.33
2019-03-05T04:16:12.993Z,18.32
2019-03-05T04:17:12.755Z,18.32
2019-03-05T04:18:12.802Z,18.31
2019-03-05T04:19:12.869Z,18.31
2019-03-05T04:20:12.507Z,18.31
2019-03-05T04:21:12.606Z,18.31
2019-03-05T04:22:12.643Z,18.3
2019-03-05T04:23:12.542Z,18.3
2019-03-05T04:24:12.690Z,18.3
2019-03-05T04:25:12.589Z,18.3
2019-03-05T04:26:12.518Z,18.3
2019-03-05T04:27:12.619Z,18.29
2019-03-05T04:28:12.815Z,18.29
2019-03-05T04:29:12.609Z,18.29
2019-03-05T04:30:12.684Z,18.29
2019-03-05T04:31:12.635Z,18.29
2019-03-05T04:32:12.525Z,18.29
2019-03-05T04:33:12.694Z,18.28
2019-03-05T04:34:12.699Z,18.28
2019-03-05T04:35:12.471Z,18.28
2019-03-05T04:36:12.704Z,18.27
2019-03-05T04:37:13.225Z,18.27
2019-03-05T04:38:12.579Z,18.27
2019-03-05T04:39:12.656Z,18.27
2019-03-05T04:40:12.530Z,18.26
2019-03-05T04:41:12.851Z,18.26
2019-03-05T04:42:12.769Z,18.26
2019-03-05T04:43:12.616Z,18.26
2019-03-05T04:44:12.617Z,18.26
2019-03-05T04:45:12.700Z,18.26
2019-03-05T04:46:12.691Z,18.25
2019-03-05T04:47:12.560Z,18.25
2019-03-05T04:48:12.750Z,18.24
2019-03-05T04:49:12.567Z,18.24
2019-03-05T04:50:12.600Z,18.24
2019-03-05T04:51:12.525Z,18.24
2019-03-05T04:52:12.550Z,18.24
2019-03-05T04:53:12.643Z,18.24
2019-03-05T04:54:12.467Z,18.24
2019-03-05T04:55:12.596Z,18.24
2019-03-05T04:56:12.620Z,18.23
2019-03-05T04:57:12.610Z,18.23
2019-03-05T04:58:12.628Z,18.23
2019-03-05T04:59:12.664Z,18.23
2019-03-05T05:00:12.493Z,18.23
2019-03-05T05:01:12.618Z,18.23
2019-03-05T05:02:12.687Z,18.23
2019-03-05T05:03:12.457Z,18.23
2019-03-05T05:04:12.575Z,18.23
2019-03-05T05:05:12.701Z,18.23
2019-03-05T05:06:12.544Z,18.23
2019-03-05T05:07:12.646Z,18.23
2019-03-05T05:08:12.554Z,18.22
2019-03-05T05:09:12.537Z,18.22
2019-03-05T05:10:12.760Z,18.21
2019-03-05T05:11:12.487Z,18.21
2019-03-05T05:12:12.572Z,18.2
2019-03-05T05:13:12.690Z,18.2
2019-03-05T05:14:12.527Z,18.2
2019-03-05T05:15:12.615Z,18.2
2019-03-05T05:16:12.850Z,18.2
2019-03-05T05:17:12.544Z,18.19
2019-03-05T05:18:12.698Z,18.2
2019-03-05T05:19:12.689Z,18.2
2019-03-05T05:20:12.530Z,18.2
2019-03-05T05:21:12.593Z,18.19
2019-03-05T05:22:12.700Z,18.2
2019-03-05T05:23:12.711Z,18.19
2019-03-05T05:24:12.600Z,18.18
2019-03-05T05:25:12.390Z,18.19
2019-03-05T05:26:12.552Z,18.19
2019-03-05T05:27:12.623Z,18.19
2019-03-05T05:28:12.556Z,18.18
2019-03-05T05:29:12.648Z,18.18
2019-03-05T05:30:12.606Z,18.18
2019-03-05T05:31:12.467Z,18.18
2019-03-05T05:32:12.611Z,18.18
2019-03-05T05:33:12.650Z,18.18
2019-03-05T05:34:12.610Z,18.17
2019-03-05T05:35:12.621Z,18.17
2019-03-05T05:36:12.798Z,18.17
2019-03-05T05:37:12.490Z,18.17
2019-03-05T05:38:12.687Z,18.17
2019-03-05T05:39:12.684Z,18.17
2019-03-05T05:40:12.518Z,18.17
2019-03-05T05:41:12.633Z,18.17
2019-03-05T05:42:12.961Z,18.17
2019-03-05T05:43:12.548Z,18.17
2019-03-05T05:44:12.638Z,18.17
2019-03-05T05:45:12.508Z,18.16
2019-03-05T05:46:12.468Z,18.16
2019-03-05T05:47:12.689Z,18.16
2019-03-05T05:48:12.502Z,18.15
2019-03-05T05:49:12.646Z,18.15
2019-03-05T05:50:12.646Z,18.16
2019-03-05T05:51:12.585Z,18.16
2019-03-05T05:52:12.542Z,18.16
2019-03-05T05:53:12.672Z,18.15
2019-03-05T05:54:12.545Z,18.16
2019-03-05T05:55:12.566Z,18.15
2019-03-05T05:56:12.674Z,18.15
2019-03-05T05:57:12.523Z,18.14
2019-03-05T05:58:12.652Z,18.14
2019-03-05T05:59:12.695Z,18.14
2019-03-05T06:00:12.555Z,18.14
2019-03-05T06:01:12.584Z,18.14
2019-03-05T06:02:12.713Z,18.14
2019-03-05T06:03:12.556Z,18.14
2019-03-05T06:04:12.790Z,18.14
2019-03-05T06:05:12.773Z,18.14
2019-03-05T06:06:12.576Z,18.13
2019-03-05T06:07:12.609Z,18.13
2019-03-05T06:08:12.432Z,18.12
2019-03-05T06:09:12.692Z,18.11
2019-03-05T06:10:12.743Z,18.12
2019-03-05T06:11:12.656Z,18.12
2019-03-05T06:12:12.635Z,18.11
2019-03-05T06:13:12.673Z,18.12
2019-03-05T06:14:12.441Z,18.12
2019-03-05T06:15:12.610Z,18.11
2019-03-05T06:16:12.673Z,18.11
2019-03-05T06:17:12.497Z,18.11
2019-03-05T06:18:12.639Z,18.11
2019-03-05T06:19:12.564Z,18.1
2019-03-05T06:20:12.493Z,17.98
2019-03-05T06:21:12.671Z,17.85
2019-03-05T06:22:12.660Z,17.76
2019-03-05T06:23:12.522Z,17.67
2019-03-05T06:24:12.646Z,17.65
2019-03-05T06:25:13.273Z,17.61
2019-03-05T06:26:12.541Z,17.56
2019-03-05T06:27:12.597Z,17.54
2019-03-05T06:28:12.540Z,17.47
2019-03-05T06:29:12.523Z,17.47
2019-03-05T06:30:12.640Z,17.42
2019-03-05T06:31:12.491Z,17.36
2019-03-05T06:32:12.522Z,17.37
2019-03-05T06:33:12.605Z,17.32
2019-03-05T06:34:12.410Z,17.41
2019-03-05T06:35:12.468Z,17.47
2019-03-05T06:36:12.604Z,17.51
2019-03-05T06:37:12.636Z,17.54
2019-03-05T06:38:12.624Z,17.6
2019-03-05T06:39:12.656Z,17.63
2019-03-05T06:40:12.438Z,17.66
2019-03-05T06:41:12.521Z,17.69
2019-03-05T06:42:12.659Z,17.72
2019-03-05T06:43:12.421Z,17.75
2019-03-05T06:44:12.492Z,17.79
2019-03-05T06:45:12.689Z,17.82
2019-03-05T06:46:12.503Z,17.85
2019-03-05T06:47:12.513Z,17.89
2019-03-05T06:48:12.684Z,17.92
2019-03-05T06:49:12.647Z,17.96
2019-03-05T06:50:12.443Z,17.98
2019-03-05T06:51:12.610Z,18.02
2019-03-05T06:52:12.613Z,18.04
2019-03-05T06:53:12.499Z,18.07
2019-03-05T06:54:12.606Z,18.1
2019-03-05T06:55:12.383Z,18.12
2019-03-05T06:56:12.771Z,18.15
2019-03-05T06:57:12.642Z,18.18
2019-03-05T06:58:12.688Z,18.2
2019-03-05T06:59:12.585Z,18.23
2019-03-05T07:00:12.619Z,18.25
2019-03-05T07:01:12.526Z,18.27
2019-03-05T07:02:12.447Z,18.29
2019-03-05T07:03:12.634Z,18.31
2019-03-05T07:04:12.617Z,18.34
2019-03-05T07:05:12.530Z,18.35
2019-03-05T07:06:12.665Z,18.36
2019-03-05T07:07:12.473Z,18.39
2019-03-05T07:08:12.502Z,18.41
2019-03-05T07:09:12.968Z,18.43
2019-03-05T07:10:12.511Z,18.45
2019-03-05T07:11:12.514Z,18.46
2019-03-05T07:12:12.707Z,18.48
2019-03-05T07:13:12.524Z,18.49
2019-03-05T07:14:12.522Z,18.51
2019-03-05T07:15:12.838Z,18.53
2019-03-05T07:16:12.522Z,18.54
2019-03-05T07:17:12.499Z,18.54
2019-03-05T07:18:12.426Z,18.56
2019-03-05T07:19:12.507Z,18.57
2019-03-05T07:20:12.547Z,18.59
2019-03-05T07:21:12.651Z,18.6
2019-03-05T07:22:12.520Z,18.61
2019-03-05T07:23:12.507Z,18.62
2019-03-05T07:24:12.640Z,18.64
2019-03-05T07:25:12.661Z,18.66
2019-03-05T07:26:12.502Z,18.66
2019-03-05T07:27:12.762Z,18.68
2019-03-05T07:28:12.485Z,18.68
2019-03-05T07:29:13.042Z,18.7
2019-03-05T07:30:12.324Z,18.71
2019-03-05T07:31:12.499Z,18.72
2019-03-05T07:32:12.535Z,18.73
2019-03-05T07:33:12.449Z,18.75
2019-03-05T07:34:12.547Z,18.74
2019-03-05T07:35:12.526Z,18.78
2019-03-05T07:36:12.427Z,18.79
2019-03-05T07:37:12.533Z,18.8
2019-03-05T07:38:12.588Z,18.82
2019-03-05T07:39:12.542Z,18.84
2019-03-05T07:40:12.649Z,18.85
2019-03-05T07:41:12.690Z,18.89
2019-03-05T07:42:12.434Z,18.87
2019-03-05T07:43:12.623Z,18.87
2019-03-05T07:44:12.760Z,18.88
2019-03-05T07:45:12.427Z,18.89
2019-03-05T07:46:12.589Z,18.9
2019-03-05T07:47:12.593Z,18.9
2019-03-05T07:48:12.448Z,18.91
2019-03-05T07:49:12.556Z,18.91
2019-03-05T07:50:12.625Z,18.92
2019-03-05T07:51:12.446Z,18.92
2019-03-05T07:52:12.547Z,18.94
2019-03-05T07:53:12.603Z,18.95
2019-03-05T07:54:12.497Z,18.96
2019-03-05T07:55:14.469Z,18.97
2019-03-05T07:56:12.589Z,18.97
2019-03-05T07:57:12.444Z,18.98
2019-03-05T07:58:12.577Z,19
2019-03-05T07:59:12.581Z,19
2019-03-05T08:00:12.414Z,19.01
2019-03-05T08:01:22.948Z,19.03
2019-03-05T08:02:12.684Z,19.03
2019-03-05T08:03:12.566Z,19.04
2019-03-05T08:04:12.587Z,19.06
2019-03-05T08:05:12.611Z,19.07
2019-03-05T08:06:12.419Z,19.08
2019-03-05T08:07:12.570Z,19.09
2019-03-05T08:08:12.629Z,19.09
2019-03-05T08:09:12.433Z,19.11
2019-03-05T08:10:12.665Z,19.13
2019-03-05T08:11:12.612Z,19.13
2019-03-05T08:12:12.575Z,19.14
2019-03-05T08:13:12.746Z,19.15
2019-03-05T08:14:12.428Z,19.16
2019-03-05T08:15:12.474Z,19.16
2019-03-05T08:16:12.608Z,19.17
2019-03-05T08:17:12.480Z,19.17
2019-03-05T08:18:12.465Z,19.19
2019-03-05T08:19:12.562Z,19.2
2019-03-05T08:20:12.428Z,19.21
2019-03-05T08:21:12.475Z,19.21
2019-03-05T08:22:12.869Z,19.21
2019-03-05T08:23:12.425Z,19.21
2019-03-05T08:24:12.452Z,19.23
2019-03-05T08:25:12.600Z,19.24
2019-03-05T08:26:12.410Z,19.25
2019-03-05T08:27:12.479Z,19.27
2019-03-05T08:28:12.652Z,19.27
2019-03-05T08:29:12.425Z,19.28
2019-03-05T08:30:15.393Z,19.28
2019-03-05T08:31:12.708Z,19.28
2019-03-05T08:32:12.390Z,19.27
2019-03-05T08:33:12.474Z,19.28
2019-03-05T08:34:12.790Z,19.29
2019-03-05T08:35:12.789Z,19.29
2019-03-05T08:36:12.488Z,19.3
2019-03-05T08:37:13.831Z,19.31
2019-03-05T08:38:12.419Z,19.31
2019-03-05T08:39:12.502Z,19.31
2019-03-05T08:40:12.647Z,19.33
2019-03-05T08:41:12.415Z,19.33
2019-03-05T08:42:12.480Z,19.33
2019-03-05T08:43:12.565Z,19.33
2019-03-05T08:44:12.489Z,19.33
2019-03-05T08:45:12.508Z,19.33
2019-03-05T08:46:12.707Z,19.3
2019-03-05T08:47:12.500Z,19.33
2019-03-05T08:48:12.495Z,19.32
2019-03-05T08:49:12.637Z,19.33
2019-03-05T08:50:12.461Z,19.32
2019-03-05T08:51:12.483Z,19.28
2019-03-05T08:52:12.641Z,19.32
2019-03-05T08:53:12.509Z,19.31
2019-03-05T08:54:12.546Z,19.32
2019-03-05T08:55:12.610Z,19.33
2019-03-05T08:56:12.659Z,19.34
2019-03-05T08:57:12.501Z,19.36
2019-03-05T08:58:12.633Z,19.37
2019-03-05T08:59:12.500Z,19.38
2019-03-05T09:00:12.506Z,19.38
2019-03-05T09:01:12.606Z,19.4
2019-03-05T09:02:12.554Z,19.41
2019-03-05T09:03:12.528Z,19.44
2019-03-05T09:04:12.606Z,19.42
2019-03-05T09:05:12.454Z,19.43
2019-03-05T09:06:12.802Z,19.44
2019-03-05T09:07:12.674Z,19.41
2019-03-05T09:08:12.380Z,19.38
2019-03-05T09:09:12.478Z,19.39
2019-03-05T09:10:12.573Z,19.39
2019-03-05T09:11:12.448Z,19.37
2019-03-05T09:12:12.471Z,19.38
2019-03-05T09:13:12.598Z,19.39
2019-03-05T09:14:12.400Z,19.39
2019-03-05T09:15:12.487Z,19.4
2019-03-05T09:16:12.782Z,19.4
2019-03-05T09:17:12.380Z,19.4
2019-03-05T09:18:13.407Z,19.4
2019-03-05T09:19:12.344Z,19.4
2019-03-05T09:20:12.439Z,19.44
2019-03-05T09:21:12.500Z,19.47
2019-03-05T09:22:12.673Z,19.47
2019-03-05T09:23:12.506Z,19.46
2019-03-05T09:24:12.511Z,19.48
2019-03-05T09:25:12.342Z,19.49
2019-03-05T09:26:12.468Z,19.48
2019-03-05T09:27:12.531Z,19.49
2019-03-05T09:28:12.299Z,19.5
2019-03-05T09:29:12.544Z,19.51
2019-03-05T09:30:12.584Z,19.51
2019-03-05T09:31:12.429Z,19.5
2019-03-05T09:32:12.508Z,19.46
2019-03-05T09:33:12.592Z,19.46
2019-03-05T09:34:12.359Z,19.48
2019-03-05T09:35:12.495Z,19.51
2019-03-05T09:36:12.546Z,19.53
2019-03-05T09:37:12.410Z,19.55
2019-03-05T09:38:12.764Z,19.56
2019-03-05T09:39:12.667Z,19.57
2019-03-05T09:40:12.840Z,19.59
2019-03-05T09:41:12.455Z,19.58
2019-03-05T09:42:12.594Z,19.58
2019-03-05T09:43:12.512Z,19.61
2019-03-05T09:44:12.510Z,19.64
2019-03-05T09:45:12.433Z,19.64
2019-03-05T09:46:12.489Z,19.67
2019-03-05T09:47:12.589Z,19.68
2019-03-05T09:48:12.444Z,19.69
2019-03-05T09:49:12.351Z,19.69
2019-03-05T09:50:12.550Z,19.71
2019-03-05T09:51:12.362Z,19.73
2019-03-05T09:52:12.460Z,19.74
2019-03-05T09:53:12.582Z,19.74
2019-03-05T09:54:12.471Z,19.76
2019-03-05T09:55:12.441Z,19.77
2019-03-05T09:56:12.563Z,19.77
2019-03-05T09:57:12.447Z,19.8
2019-03-05T09:58:12.426Z,19.8
2019-03-05T09:59:12.605Z,19.81
2019-03-05T10:00:12.482Z,19.81
2019-03-05T10:01:12.645Z,19.82
2019-03-05T10:02:12.595Z,19.84
2019-03-05T10:03:12.425Z,19.85
2019-03-05T10:04:12.446Z,19.86
2019-03-05T10:05:12.616Z,19.86
2019-03-05T10:06:12.450Z,19.87
2019-03-05T10:07:19.672Z,19.89
2019-03-05T10:08:12.585Z,19.88
2019-03-05T10:09:12.444Z,19.89
2019-03-05T10:10:12.514Z,19.9
2019-03-05T10:11:12.629Z,19.91
2019-03-05T10:12:12.454Z,19.92
2019-03-05T10:13:13.718Z,19.93
2019-03-05T10:14:12.564Z,19.94
2019-03-05T10:15:12.441Z,19.94
2019-03-05T10:16:12.421Z,19.94
2019-03-05T10:17:12.612Z,19.94
2019-03-05T10:18:13.540Z,19.95
2019-03-05T10:19:12.496Z,19.97
2019-03-05T10:20:12.574Z,19.97
2019-03-05T10:21:12.467Z,19.98
2019-03-05T10:22:12.741Z,20
2019-03-05T10:23:12.671Z,20
2019-03-05T10:24:12.812Z,20.01
2019-03-05T10:25:13.237Z,20.02
2019-03-05T10:26:12.468Z,20.03
2019-03-05T10:27:12.656Z,20.04
2019-03-05T10:28:12.370Z,20.04
2019-03-05T10:29:12.541Z,20.05
2019-03-05T10:30:12.653Z,20.06
2019-03-05T10:31:12.441Z,20.06
2019-03-05T10:32:12.515Z,20.07
2019-03-05T10:33:12.315Z,20.09
2019-03-05T10:34:12.345Z,20.12
2019-03-05T10:35:12.472Z,20.14
2019-03-05T10:36:12.581Z,20.14
2019-03-05T10:37:19.361Z,20.14
2019-03-05T10:38:12.598Z,20.14
2019-03-05T10:39:12.367Z,20.16
2019-03-05T10:40:12.365Z,20.16
2019-03-05T10:41:12.511Z,20.18
2019-03-05T10:42:12.583Z,20.19
2019-03-05T10:43:12.449Z,20.19
2019-03-05T10:44:12.449Z,20.2
2019-03-05T10:45:12.578Z,20.21
2019-03-05T10:46:12.363Z,20.23
2019-03-05T10:47:12.541Z,20.24
2019-03-05T10:48:12.556Z,20.25
2019-03-05T10:49:12.357Z,20.25
2019-03-05T10:50:16.005Z,20.27
2019-03-05T10:51:12.544Z,20.28
2019-03-05T10:52:12.288Z,20.32
2019-03-05T10:53:12.571Z,20.31
2019-03-05T10:54:12.496Z,20.3
2019-03-05T10:55:12.332Z,20.32
2019-03-05T10:56:12.484Z,20.32
2019-03-05T10:57:12.521Z,20.33
2019-03-05T10:58:12.468Z,20.32
2019-03-05T10:59:12.462Z,20.34
2019-03-05T11:00:12.529Z,20.34
2019-03-05T11:01:12.455Z,20.34
2019-03-05T11:02:12.529Z,20.35
2019-03-05T11:03:12.486Z,20.35
2019-03-05T11:04:12.421Z,20.37
2019-03-05T11:05:12.585Z,20.36
2019-03-05T11:06:12.396Z,20.36
2019-03-05T11:07:12.378Z,20.38
2019-03-05T11:08:12.554Z,20.37
2019-03-05T11:09:12.599Z,20.39
2019-03-05T11:10:12.376Z,20.4
2019-03-05T11:11:14.451Z,20.4
2019-03-05T11:12:12.422Z,20.41
2019-03-05T11:13:12.442Z,20.41
2019-03-05T11:14:12.720Z,20.43
2019-03-05T11:15:12.361Z,20.42
2019-03-05T11:16:12.445Z,20.44
2019-03-05T11:17:12.574Z,20.45
2019-03-05T11:18:12.487Z,20.45
2019-03-05T11:19:12.431Z,20.45
2019-03-05T11:20:12.586Z,20.45
2019-03-05T11:21:12.420Z,20.46
2019-03-05T11:22:12.459Z,20.47
2019-03-05T11:23:12.688Z,20.47
2019-03-05T11:24:12.444Z,20.47
2019-03-05T11:25:12.522Z,20.47
2019-03-05T11:26:12.507Z,20.47
2019-03-05T11:27:12.594Z,20.52
2019-03-05T11:28:12.508Z,20.52
2019-03-05T11:29:12.645Z,20.53
2019-03-05T11:30:12.627Z,20.54
2019-03-05T11:31:12.557Z,20.56
2019-03-05T11:32:12.382Z,20.57
2019-03-05T11:33:12.437Z,20.58
2019-03-05T11:34:13.581Z,20.59
2019-03-05T11:35:12.310Z,20.59
2019-03-05T11:36:12.499Z,20.59
2019-03-05T11:37:12.543Z,20.6
2019-03-05T11:38:12.386Z,20.61
2019-03-05T11:39:13.289Z,20.64
2019-03-05T11:40:21.576Z,20.65
2019-03-05T11:41:12.277Z,20.66
2019-03-05T11:42:12.556Z,20.66
2019-03-05T11:43:13.130Z,20.66
2019-03-05T11:44:12.311Z,20.66
2019-03-05T11:45:12.505Z,20.67
2019-03-05T11:46:12.517Z,20.67
2019-03-05T11:47:12.458Z,20.68
2019-03-05T11:48:12.540Z,20.69
2019-03-05T11:49:12.764Z,20.69
2019-03-05T11:50:12.442Z,20.69
2019-03-05T11:51:12.513Z,20.71
2019-03-05T11:52:12.482Z,20.71
2019-03-05T11:53:12.386Z,20.71
2019-03-05T11:54:12.456Z,20.72
2019-03-05T11:55:12.725Z,20.71
2019-03-05T11:56:12.373Z,20.72
2019-03-05T11:57:12.514Z,20.72
2019-03-05T11:58:12.511Z,20.74
2019-03-05T11:59:12.489Z,20.74
2019-03-05T12:00:12.499Z,20.75
2019-03-05T12:01:12.578Z,20.73
2019-03-05T12:02:22.356Z,20.77
2019-03-05T12:03:12.416Z,20.78
2019-03-05T12:04:12.357Z,20.8
2019-03-05T12:05:12.567Z,20.81
2019-03-05T12:06:12.531Z,20.81
2019-03-05T12:07:12.564Z,20.82
2019-03-05T12:08:12.563Z,20.84
2019-03-05T12:09:30.712Z,20.83
2019-03-05T12:10:12.581Z,20.83
2019-03-05T12:11:12.448Z,20.88
2019-03-05T12:12:12.509Z,20.87
2019-03-05T12:13:14.963Z,20.83
2019-03-05T12:14:12.494Z,20.83
2019-03-05T12:15:12.513Z,20.83
2019-03-05T12:16:12.422Z,20.82
2019-03-05T12:17:12.444Z,20.83
2019-03-05T12:18:12.518Z,20.81
2019-03-05T12:19:12.346Z,20.81
2019-03-05T12:20:12.443Z,20.81
2019-03-05T12:21:12.522Z,20.8
2019-03-05T12:22:12.280Z,20.8
2019-03-05T12:23:12.492Z,20.79
2019-03-05T12:24:12.615Z,20.79
2019-03-05T12:25:12.357Z,20.8
2019-03-05T12:26:12.535Z,20.79
2019-03-05T12:27:12.762Z,20.79
2019-03-05T12:28:12.321Z,20.79
2019-03-05T12:29:12.393Z,20.8
2019-03-05T12:30:12.453Z,20.8
2019-03-05T12:31:12.365Z,20.8
2019-03-05T12:32:15.608Z,20.81
2019-03-05T12:33:12.515Z,20.81
2019-03-05T12:34:12.445Z,20.81
2019-03-05T12:35:12.530Z,20.81
2019-03-05T12:36:12.310Z,20.83
2019-03-05T12:37:12.330Z,20.82
2019-03-05T12:38:12.524Z,20.83
2019-03-05T12:39:12.395Z,20.83
2019-03-05T12:40:12.388Z,20.83
2019-03-05T12:41:12.721Z,20.83
2019-03-05T12:42:12.318Z,20.84
2019-03-05T12:43:12.343Z,20.85
2019-03-05T12:44:12.495Z,20.84
2019-03-05T12:45:12.359Z,20.84
2019-03-05T12:46:12.516Z,20.85
2019-03-05T12:47:12.477Z,20.84
2019-03-05T12:48:12.555Z,20.85
2019-03-05T12:49:12.363Z,20.86
2019-03-05T12:50:12.482Z,20.86
2019-03-05T12:51:12.366Z,20.86
2019-03-05T12:52:12.398Z,20.87
2019-03-05T12:53:12.606Z,20.89
2019-03-05T12:54:12.436Z,20.88
2019-03-05T12:55:13.633Z,20.89